Time;durP1;ratioP1;P1;durP2;ratioP2;P2;SDS_P1;SDS_P2;PMS_P1;PMS_P2;Temp;Humidity;BMP_temperature;BMP_pressure;BME280_temperature;BME280_humidity;BME280_pressure;Samples;Min_cycle;Max_cycle;Signal;HPM_P1;HPM_P2
2022/09/18 00:01:17;;;;;;;5.53;1.90;;;12.50;92.10;;;;;;20667275;28;20644;-72
2022/09/18 00:11:21;;;;;;;4.17;1.60;;;12.50;92.30;;;;;;20667141;28;20218;-71
2022/09/18 00:21:23;;;;;;;7.33;1.80;;;12.50;92.50;;;;;;20666830;28;20243;-74
2022/09/18 00:31:33;;;;;;;8.60;1.43;;;12.50;92.80;;;;;;20666325;28;20214;-75
2022/09/18 00:41:37;;;;;;;4.50;1.80;;;12.50;93.20;;;;;;20667763;28;20691;-78
2022/09/18 00:51:41;;;;;;;5.93;1.60;;;12.60;93.80;;;;;;20680643;28;20210;-76
2022/09/18 01:01:42;;;;;;;4.63;1.83;;;12.50;94.00;;;;;;20680332;28;20653;-76
2022/09/18 01:12:12;;;;;;;5.77;1.87;;;12.60;94.20;;;;;;20679825;28;20212;-76
2022/09/18 01:22:51;;;;;;;5.27;1.50;;;12.60;94.40;;;;;;20679165;28;20715;-76
2022/09/18 01:33:02;;;;;;;9.33;1.83;;;12.50;94.60;;;;;;20678311;28;20658;-77
2022/09/18 01:43:08;;;;;;;7.90;2.00;;;12.50;94.30;;;;;;20677599;28;20233;-75
2022/09/18 01:53:15;;;;;;;5.10;1.93;;;12.50;94.60;;;;;;20676765;28;20700;-76
2022/09/18 02:03:34;;;;;;;5.10;2.07;;;12.60;94.40;;;;;;20676140;28;20716;-75
2022/09/18 02:14:07;;;;;;;6.10;2.00;;;12.60;94.50;;;;;;20675182;28;20723;-77
2022/09/18 02:24:11;;;;;;;7.53;2.00;;;12.70;94.50;;;;;;20674337;28;20641;-74
2022/09/18 02:34:12;;;;;;;3.67;1.90;;;12.70;94.40;;;;;;20673841;28;20214;-76
2022/09/18 02:44:24;;;;;;;5.47;1.80;;;12.70;94.40;;;;;;20668648;28;20234;-75
2022/09/18 02:54:32;;;;;;;4.50;1.53;;;12.60;94.40;;;;;;20670769;28;20207;-76
2022/09/18 03:04:33;;;;;;;7.80;1.60;;;12.70;94.30;;;;;;20670767;28;20236;-77
2022/09/18 03:14:35;;;;;;;4.00;1.40;;;12.60;94.20;;;;;;20670046;28;20235;-75
2022/09/18 03:24:37;;;;;;;4.10;1.50;;;12.60;94.00;;;;;;20669486;28;20712;-76
2022/09/18 03:34:38;;;;;;;3.90;1.67;;;12.60;94.10;;;;;;20669525;28;20206;-77
2022/09/18 03:44:40;;;;;;;5.80;1.73;;;12.60;94.00;;;;;;20668303;28;20293;-76
2022/09/18 03:54:42;;;;;;;3.87;1.83;;;12.70;93.90;;;;;;20667711;28;20282;-76
2022/09/18 04:04:43;;;;;;;6.33;2.10;;;12.80;93.80;;;;;;20667404;28;20242;-72
2022/09/18 04:14:45;;;;;;;2.33;1.40;;;12.80;93.80;;;;;;20666523;28;20294;-73
2022/09/18 04:24:47;;;;;;;5.50;1.30;;;12.80;94.00;;;;;;20666184;28;20255;-73
2022/09/18 04:34:48;;;;;;;3.77;1.33;;;12.90;93.70;;;;;;20666345;28;20285;-75
2022/09/18 04:44:50;;;;;;;4.37;1.50;;;12.80;94.00;;;;;;20662340;28;20237;-77
2022/09/18 04:54:52;;;;;;;4.67;1.50;;;12.90;94.00;;;;;;20646577;28;20284;-77
2022/09/18 05:04:53;;;;;;;3.03;1.50;;;12.80;94.30;;;;;;20664992;28;20229;-78
2022/09/18 05:14:55;;;;;;;5.10;1.50;;;12.70;94.60;;;;;;20664350;28;20230;-77
2022/09/18 05:24:56;;;;;;;3.37;1.40;;;12.70;94.80;;;;;;20665279;28;20700;-76
2022/09/18 05:34:58;;;;;;;2.70;1.37;;;12.70;95.00;;;;;;20678529;28;20217;-77
2022/09/18 05:45:00;;;;;;;2.60;1.30;;;12.70;95.40;;;;;;20677452;28;20229;-78
2022/09/18 05:55:02;;;;;;;5.10;1.60;;;12.70;95.60;;;;;;20676642;28;20217;-76
2022/09/18 06:05:04;;;;;;;3.10;1.50;;;12.70;95.90;;;;;;20676004;28;20243;-76
2022/09/18 06:15:07;;;;;;;4.23;1.57;;;12.70;95.70;;;;;;20674798;28;20238;-75
2022/09/18 06:25:09;;;;;;;2.33;1.40;;;12.80;96.00;;;;;;20673933;28;20248;-74
2022/09/18 06:35:11;;;;;;;2.63;1.27;;;12.70;95.90;;;;;;20673546;28;20213;-71
2022/09/18 06:45:12;;;;;;;2.50;1.30;;;12.70;96.00;;;;;;20667159;28;20240;-76
2022/09/18 06:55:15;;;;;;;7.57;2.77;;;12.80;96.00;;;;;;20669778;28;20202;-76
2022/09/18 07:05:17;;;;;;;19.40;6.43;;;12.80;95.90;;;;;;20670394;28;20231;-70
2022/09/18 07:15:19;;;;;;;2.97;1.30;;;12.80;95.80;;;;;;20666833;28;20236;-71
2022/09/18 07:25:21;;;;;;;3.83;1.30;;;12.80;96.10;;;;;;20669134;28;20234;-71
2022/09/18 07:35:23;;;;;;;5.63;1.20;;;12.80;96.00;;;;;;20668674;28;20206;-70
2022/09/18 07:45:25;;;;;;;5.23;1.30;;;12.90;96.10;;;;;;20666752;28;20701;-72
2022/09/18 07:55:27;;;;;;;3.17;1.10;;;13.10;95.50;;;;;;20666329;28;20626;-71
2022/09/18 08:05:29;;;;;;;2.87;1.27;;;13.10;95.70;;;;;;20666044;28;20699;-74
2022/09/18 08:15:32;;;;;;;1.77;1.10;;;13.30;95.60;;;;;;20665818;28;20230;-73
2022/09/18 08:25:34;;;;;;;1.83;0.90;;;13.30;95.10;;;;;;20649159;28;20642;-69
2022/09/18 08:35:36;;;;;;;4.90;1.30;;;13.50;94.90;;;;;;20666389;28;20249;-72
2022/09/18 08:45:59;;;;;;;4.90;1.20;;;13.50;94.60;;;;;;20665176;28;20234;-73
2022/09/18 08:56:05;;;;;;;1.83;1.10;;;13.60;94.30;;;;;;20664796;28;20224;-74
2022/09/18 09:06:40;;;;;;;1.30;1.00;;;13.60;94.20;;;;;;20674029;28;20702;-74
2022/09/18 09:16:45;;;;;;;1.90;0.90;;;13.70;94.30;;;;;;20677685;28;20238;-73
2022/09/18 09:26:48;;;;;;;1.63;1.10;;;13.80;94.20;;;;;;20677912;28;20798;-73
2022/09/18 09:36:53;;;;;;;3.37;1.23;;;13.90;94.30;;;;;;20678072;28;20567;-75
2022/09/18 09:47:26;;;;;;;1.63;1.03;;;14.00;94.30;;;;;;20659202;28;20244;-73
2022/09/18 09:57:46;;;;;;;2.40;1.20;;;14.00;94.50;;;;;;20673321;28;20236;-75
2022/09/18 10:08:04;;;;;;;3.10;1.53;;;13.80;94.60;;;;;;20668045;28;20213;-78
2022/09/18 10:18:24;;;;;;;1.97;1.30;;;13.40;95.90;;;;;;20674127;28;20239;-76
2022/09/18 10:28:28;;;;;;;4.53;1.67;;;13.40;96.30;;;;;;20673235;28;20219;-73
2022/09/18 10:38:33;;;;;;;2.53;1.10;;;13.50;96.50;;;;;;20596530;28;20242;-74
2022/09/18 10:48:35;;;;;;;3.10;1.20;;;13.50;96.50;;;;;;20591925;28;20213;-74
2022/09/18 10:58:36;;;;;;;2.43;1.07;;;13.70;96.10;;;;;;20666927;28;20655;-73
2022/09/18 11:08:43;;;;;;;3.07;1.10;;;13.80;95.80;;;;;;20670401;28;20265;-72
2022/09/18 11:18:46;;;;;;;2.30;1.40;;;14.30;95.00;;;;;;20668970;28;20722;-74
2022/09/18 11:29:15;;;;;;;2.20;1.20;;;14.70;94.30;;;;;;20668560;28;20268;-73
2022/09/18 11:39:27;;;;;;;3.13;2.10;;;14.80;91.90;;;;;;20567462;28;20691;-73
2022/09/18 11:49:39;;;;;;;5.60;2.73;;;14.80;92.20;;;;;;20586268;28;20675;-74
2022/09/18 11:59:45;;;;;;;5.30;2.30;;;14.70;92.10;;;;;;20586620;28;20699;-75
2022/09/18 12:10:20;;;;;;;3.77;1.47;;;14.60;91.50;;;;;;20586086;28;20213;-75
2022/09/18 12:20:33;;;;;;;4.50;2.43;;;14.50;90.90;;;;;;20643820;28;20242;-76
2022/09/18 12:30:56;;;;;;;2.80;1.13;;;14.60;90.10;;;;;;20663424;28;20214;-78
2022/09/18 12:41:23;;;;;;;3.53;1.20;;;14.70;90.40;;;;;;20672921;28;20237;-77
2022/09/18 12:51:33;;;;;;;2.53;1.33;;;14.80;89.00;;;;;;20680516;28;20217;-75
2022/09/18 13:01:40;;;;;;;2.30;1.20;;;14.90;87.60;;;;;;20663264;28;20234;-77
2022/09/18 13:11:47;;;;;;;3.07;1.63;;;15.00;86.50;;;;;;20679209;28;20210;-76
2022/09/18 13:21:51;;;;;;;6.87;2.00;;;14.90;84.60;;;;;;20675631;28;20298;-71
2022/09/18 13:31:53;;;;;;;3.40;1.83;;;14.90;85.10;;;;;;20678589;28;20248;-71
2022/09/18 13:41:57;;;;;;;2.87;1.30;;;14.80;84.80;;;;;;20676646;28;20233;-71
2022/09/18 13:52:34;;;;;;;5.03;2.00;;;14.70;84.70;;;;;;20676222;28;20749;-71
2022/09/18 14:02:38;;;;;;;6.30;3.00;;;14.60;86.90;;;;;;20553449;28;20245;-73
2022/09/18 14:12:39;;;;;;;3.50;1.63;;;14.70;88.30;;;;;;20657667;28;20280;-73
2022/09/18 14:22:41;;;;;;;5.63;2.60;;;14.60;89.80;;;;;;20674252;28;20626;-72
2022/09/18 14:33:03;;;;;;;3.17;2.20;;;14.40;90.50;;;;;;20674512;28;20210;-68
2022/09/18 14:43:15;;;;;;;2.60;1.67;;;14.40;91.20;;;;;;20672967;28;20245;-72
2022/09/18 14:53:23;;;;;;;2.60;1.63;;;14.50;91.50;;;;;;20672606;28;20262;-78
2022/09/18 15:03:38;;;;;;;8.03;3.17;;;14.50;91.80;;;;;;20670874;28;20285;-75
2022/09/18 15:13:41;;;;;;;2.73;1.70;;;14.30;92.20;;;;;;20670203;28;20736;-74
2022/09/18 15:23:43;;;;;;;3.37;1.90;;;14.20;92.80;;;;;;20669829;28;20237;-69
2022/09/18 15:34:00;;;;;;;5.70;2.93;;;14.20;93.20;;;;;;20669336;28;20203;-70
2022/09/18 15:44:33;;;;;;;10.10;5.40;;;14.20;93.40;;;;;;20984256;28;20622;-77
2022/09/18 15:54:34;;;;;;;2.87;1.97;;;14.00;93.70;;;;;;20982564;28;20739;-76
2022/09/18 16:04:36;;;;;;;8.23;2.30;;;13.90;94.10;;;;;;20978885;28;20667;-76
2022/09/18 16:14:57;;;;;;;8.37;2.10;;;13.90;94.40;;;;;;20980626;28;20238;-75
2022/09/18 16:25:00;;;;;;;4.57;2.57;;;13.70;94.90;;;;;;20982216;28;20663;-76
2022/09/18 16:35:05;;;;;;;4.07;2.10;;;13.70;95.40;;;;;;20981523;28;20238;-77
2022/09/18 16:45:07;;;;;;;3.43;2.30;;;13.70;95.50;;;;;;20979524;28;20210;-77
2022/09/18 16:55:08;;;;;;;3.80;1.90;;;13.60;95.80;;;;;;20925889;28;20258;-73
2022/09/18 17:05:10;;;;;;;6.60;2.30;;;13.50;96.20;;;;;;20923431;28;20204;-71
2022/09/18 17:15:11;;;;;;;3.83;2.27;;;13.40;96.60;;;;;;20906128;28;20243;-71
2022/09/18 17:25:13;;;;;;;6.20;3.20;;;13.40;96.90;;;;;;20897701;28;20208;-70
2022/09/18 17:35:16;;;;;;;7.97;2.97;;;13.20;97.20;;;;;;20885605;28;20274;-68
2022/09/18 17:45:18;;;;;;;4.83;2.80;;;13.10;97.90;;;;;;20888444;28;20210;-67
2022/09/18 17:55:19;;;;;;;3.07;2.60;;;13.00;98.10;;;;;;20862919;28;20234;-73
2022/09/18 18:05:22;;;;;;;6.17;3.10;;;12.90;98.50;;;;;;20898189;28;20208;-74
2022/09/18 18:15:24;;;;;;;4.57;2.50;;;12.90;98.80;;;;;;20893483;28;20238;-73
2022/09/18 18:25:26;;;;;;;5.83;3.47;;;12.90;98.90;;;;;;20874610;28;20255;-71
2022/09/18 18:35:28;;;;;;;5.47;2.80;;;12.90;98.60;;;;;;20833866;28;20610;-74
2022/09/18 18:45:36;;;;;;;8.20;2.73;;;12.70;98.90;;;;;;20831671;28;20240;-73
2022/09/18 18:55:38;;;;;;;2.77;2.17;;;12.70;99.20;;;;;;20830378;28;20236;-71
2022/09/18 19:05:39;;;;;;;3.37;2.50;;;12.60;99.00;;;;;;20903162;28;20215;-73
2022/09/18 19:15:41;;;;;;;3.73;1.50;;;12.30;99.00;;;;;;20913569;28;20232;-72
2022/09/18 19:25:44;;;;;;;2.63;1.50;;;12.20;99.10;;;;;;20912745;28;20212;-72
2022/09/18 19:35:45;;;;;;;3.53;1.40;;;12.00;99.60;;;;;;20911961;28;20613;-72
2022/09/18 19:45:47;;;;;;;1.70;1.20;;;12.00;99.60;;;;;;20912253;28;20263;-73
2022/09/18 19:55:49;;;;;;;1.97;1.30;;;11.90;99.20;;;;;;20911468;28;20330;-74
2022/09/18 20:05:50;;;;;;;1.30;1.10;;;11.70;98.80;;;;;;20911275;28;20563;-72
2022/09/18 20:16:08;;;;;;;1.53;1.10;;;11.70;98.70;;;;;;20911284;28;20235;-73
2022/09/18 20:26:16;;;;;;;3.00;1.10;;;11.60;98.90;;;;;;20918602;28;20728;-72
2022/09/18 20:36:18;;;;;;;1.23;1.00;;;11.60;98.60;;;;;;20925285;28;20240;-73
2022/09/18 20:46:19;;;;;;;2.13;1.17;;;11.30;98.40;;;;;;20919073;28;20205;-72
2022/09/18 20:56:29;;;;;;;0.80;0.80;;;11.10;98.60;;;;;;20836575;28;20696;-72
2022/09/18 21:06:32;;;;;;;1.67;0.83;;;11.30;98.30;;;;;;20840386;28;20554;-73
2022/09/18 21:16:39;;;;;;;0.77;0.77;;;11.30;98.60;;;;;;20840255;28;20238;-72
2022/09/18 21:26:47;;;;;;;0.77;0.77;;;11.30;98.40;;;;;;20837584;28;20213;-72
2022/09/18 21:37:03;;;;;;;0.70;0.70;;;11.20;98.00;;;;;;20837393;28;20240;-72
2022/09/18 21:47:07;;;;;;;0.77;0.50;;;11.10;97.80;;;;;;20838015;28;20263;-72
2022/09/18 21:57:08;;;;;;;0.70;0.70;;;11.00;97.60;;;;;;20836823;28;20233;-72
2022/09/18 22:07:11;;;;;;;4.03;1.00;;;11.00;97.50;;;;;;20836232;28;20256;-72
2022/09/18 22:17:12;;;;;;;1.30;0.80;;;10.80;97.00;;;;;;20848118;28;20227;-72
2022/09/18 22:27:14;;;;;;;0.60;0.60;;;10.80;97.20;;;;;;20911898;28;20234;-72
2022/09/18 22:37:16;;;;;;;0.80;0.80;;;10.80;97.30;;;;;;20915615;28;20703;-72
2022/09/18 22:47:17;;;;;;;0.93;0.73;;;10.70;97.10;;;;;;20915357;28;20545;-73
2022/09/18 22:57:19;;;;;;;0.90;0.60;;;10.70;96.90;;;;;;20914752;28;20235;-72
2022/09/18 23:07:21;;;;;;;0.63;0.63;;;10.60;97.40;;;;;;20913916;28;20212;-73
2022/09/18 23:17:22;;;;;;;1.87;0.70;;;10.60;97.40;;;;;;20913799;28;20239;-72
2022/09/18 23:27:24;;;;;;;1.00;0.97;;;10.50;97.40;;;;;;20914033;28;20207;-72
2022/09/18 23:37:26;;;;;;;2.47;1.00;;;10.40;97.10;;;;;;20912005;28;20232;-72
2022/09/18 23:47:27;;;;;;;0.80;0.80;;;10.50;97.40;;;;;;20912381;28;20206;-73
2022/09/18 23:57:29;;;;;;;0.97;0.80;;;10.50;97.40;;;;;;20914104;28;20750;-73
